Terminal Aerodrome Forecast
Issued by NWS

Home | Current Version | Previous Version | Text Only | Print | Product List | Glossary On
Versions: 1 2 3 4 5 6 7 8 9 10 11 12 13 14 15
000
FTUS45 KGJT 260544
TAFASE
TAF
KASE 260544Z 2606/2706 20006KT P6SM VCSH BKN040
      TEMPO 2606/2610 20010G18KT P6SM -RA OVC040
     FM261200 17005KT P6SM SCT070
     FM261800 22014G22KT P6SM BKN090
     FM270300 20007KT P6SM SCT100=

USA.gov is the U.S. government's official web portal to all federal, state and local government web resources and services.